< < Back
Terminal Aerodrome Forecast


Current Version              Previous Versions:   1  2  3  4  5  6  7  8  9  

Terminal Aerodrome Forecast

535
FTUS42 KILM 130328 AAB
TAFILM
TAF AMD
KILM 130328Z 1303/1324 31006KT P6SM FEW009 BKN050
     FM130900 30004KT P6SM FEW250
     FM131300 34015G24KT P6SM SKC
     FM132200 32011KT P6SM SKC=

Latest METAR

387
SAUS70 KWBC 130400 RRG
MTRILM
METAR KILM 130353Z AUTO 33005KT 7SM CLR M01/M02 A3005 RMK AO2 SLP177
T10061017


USA.gov is the U.S. government's official web portal to all federal, state and local government web resources and services.